Kinston, North Carolina
Current Conditions -  °F | °C
As of 3:15 AM on Thursday 27 Nov 2014 (Local Time) from KISO Reporting Station
Haze Haze  
Wind Chill: 36°   Ceiling: Unl
Heat Index: 36°   Visibility: 5mi
Dew Point: 36°   Wind: 0mph
Humidity: 99%   Direction: NA
Pressure: 30.1"   Gusts: NA
Location:  35.27°N, 77.58°W
Report Text: KISO 270815Z AUTO 00000KT 5SM BR SCT049 02/02 A3010 RMK AO2 T00210020
Loading
Personal Weather Stations






























Interactive Weather Map New forecast layout! Learn more

10-Day Weather Forecast

Advertisements
Track Severe Weather on mobile